createdAt,value
2022-11-10T00:01:07.117Z,9.40
2022-11-10T00:03:59.428Z,9.40
2022-11-10T00:06:51.653Z,9.40
2022-11-10T00:09:43.785Z,9.40
2022-11-10T00:12:36.018Z,9.40
2022-11-10T00:15:46.814Z,9.40
2022-11-10T00:18:39.122Z,9.50
2022-11-10T00:21:31.234Z,9.40
2022-11-10T00:24:24.185Z,9.40
2022-11-10T00:27:16.316Z,9.40
2022-11-10T00:30:08.728Z,9.40
2022-11-10T00:33:00.842Z,9.30
2022-11-10T00:35:53.058Z,9.40
2022-11-10T00:38:45.183Z,9.40
2022-11-10T00:41:37.358Z,9.40
2022-11-10T00:44:29.643Z,9.40
2022-11-10T00:47:21.789Z,9.40
2022-11-10T00:50:14.098Z,9.40
2022-11-10T00:53:06.255Z,9.40
2022-11-10T00:55:58.382Z,9.40
2022-11-10T00:58:50.821Z,9.40
2022-11-10T01:01:42.956Z,9.40
2022-11-10T01:04:35.098Z,9.40
2022-11-10T01:07:27.196Z,9.50
2022-11-10T01:10:19.389Z,9.70
2022-11-10T01:13:11.581Z,9.80
2022-11-10T01:16:09.677Z,9.90
2022-11-10T01:19:03.577Z,10.00
2022-11-10T01:21:55.706Z,10.10
2022-11-10T01:24:47.873Z,10.20
2022-11-10T01:27:40.031Z,10.20
2022-11-10T01:30:32.329Z,10.20
2022-11-10T01:33:24.756Z,10.30
2022-11-10T01:36:17.250Z,10.40
2022-11-10T01:39:09.378Z,10.40
2022-11-10T01:42:01.507Z,10.40
2022-11-10T01:45:24.691Z,10.50
2022-11-10T01:48:27.271Z,10.50
2022-11-10T01:51:25.391Z,10.50
2022-11-10T01:54:30.760Z,10.60
2022-11-10T01:57:22.870Z,10.60
2022-11-10T02:00:15.440Z,10.60
2022-11-10T02:03:31.966Z,10.60
2022-11-10T02:06:27.397Z,10.60
2022-11-10T02:09:19.835Z,10.60
2022-11-10T02:12:12.993Z,10.50
2022-11-10T02:15:08.063Z,10.50
2022-11-10T02:18:00.194Z,10.60
2022-11-10T02:20:52.350Z,10.60
2022-11-10T02:23:47.582Z,10.50
2022-11-10T02:26:55.993Z,10.50
2022-11-10T02:29:48.117Z,10.50
2022-11-10T02:32:40.269Z,10.60
2022-11-10T02:35:32.395Z,10.60
2022-11-10T02:38:24.549Z,10.60
2022-11-10T02:41:16.688Z,10.60
2022-11-10T02:44:09.057Z,10.70
2022-11-10T02:47:01.160Z,10.60
2022-11-10T02:49:53.309Z,10.50
2022-11-10T02:52:45.433Z,10.50
2022-11-10T02:55:37.798Z,10.50
2022-11-10T02:58:29.935Z,10.50
2022-11-10T03:01:22.127Z,10.50
2022-11-10T03:04:14.634Z,10.40
2022-11-10T03:07:06.943Z,10.40
2022-11-10T03:09:59.166Z,10.40
2022-11-10T03:12:55.465Z,10.30
2022-11-10T03:15:48.518Z,10.20
2022-11-10T03:18:40.641Z,10.10
2022-11-10T03:21:32.772Z,10.20
2022-11-10T03:24:24.872Z,10.30
2022-11-10T03:27:16.968Z,10.30
2022-11-10T03:30:09.513Z,10.30
2022-11-10T03:33:01.641Z,10.20
2022-11-10T03:35:53.751Z,10.20
2022-11-10T03:38:45.887Z,10.10
2022-11-10T03:41:37.998Z,10.00
2022-11-10T03:44:30.106Z,10.00
2022-11-10T03:47:22.320Z,10.10
2022-11-10T03:50:16.184Z,10.00
2022-11-10T03:53:08.323Z,10.10
2022-11-10T03:56:01.691Z,10.00
2022-11-10T03:58:53.798Z,10.00
2022-11-10T04:01:45.992Z,10.10
2022-11-10T04:04:56.866Z,10.10
2022-11-10T04:08:07.364Z,10.10
2022-11-10T04:10:59.506Z,9.90
2022-11-10T04:14:10.132Z,9.80
2022-11-10T04:17:03.129Z,9.70
2022-11-10T04:19:55.223Z,9.70
2022-11-10T04:23:05.889Z,9.60
2022-11-10T04:26:24.769Z,9.60
2022-11-10T04:29:19.454Z,9.60
2022-11-10T04:32:11.677Z,9.60
2022-11-10T04:35:04.019Z,9.60
2022-11-10T04:37:56.148Z,9.60
2022-11-10T04:40:48.274Z,9.60
2022-11-10T04:43:40.902Z,9.60
2022-11-10T04:46:36.091Z,9.60
2022-11-10T04:49:28.280Z,9.50
2022-11-10T04:52:20.408Z,9.50
2022-11-10T04:55:12.611Z,9.60
2022-11-10T04:58:06.046Z,9.60
2022-11-10T05:00:58.493Z,9.60
2022-11-10T05:03:51.187Z,9.60
2022-11-10T05:06:43.327Z,9.60
2022-11-10T05:09:35.485Z,9.60
2022-11-10T05:12:27.608Z,9.60
2022-11-10T05:15:19.762Z,9.60
2022-11-10T05:18:11.866Z,9.60
2022-11-10T05:21:04.520Z,9.60
2022-11-10T05:23:56.786Z,9.60
2022-11-10T05:26:48.963Z,9.60
2022-11-10T05:29:41.107Z,9.70
2022-11-10T05:32:33.237Z,9.80
2022-11-10T05:35:25.962Z,9.80
2022-11-10T05:38:18.485Z,9.90
2022-11-10T05:41:11.043Z,9.90
2022-11-10T05:44:03.210Z,10.00
2022-11-10T05:46:55.377Z,10.10
2022-11-10T05:49:47.509Z,10.10
2022-11-10T05:52:50.043Z,10.10
2022-11-10T05:55:42.590Z,10.00
2022-11-10T05:58:34.707Z,10.00
2022-11-10T06:01:26.827Z,10.10
2022-11-10T06:04:18.959Z,10.10
2022-11-10T06:07:12.024Z,10.10
2022-11-10T06:10:04.700Z,10.10
2022-11-10T06:12:57.273Z,10.10
2022-11-10T06:15:50.726Z,10.10
2022-11-10T06:18:42.937Z,10.10
2022-11-10T06:21:35.036Z,10.20
2022-11-10T06:24:27.172Z,10.20
2022-11-10T06:27:19.301Z,10.20
2022-11-10T06:30:12.026Z,10.30
2022-11-10T06:33:04.652Z,10.30
2022-11-10T06:35:56.922Z,10.40
2022-11-10T06:38:49.096Z,10.60
2022-11-10T06:41:41.217Z,10.60
2022-11-10T06:44:33.355Z,10.60
2022-11-10T06:47:25.558Z,10.60
2022-11-10T06:50:17.839Z,10.40
2022-11-10T06:53:10.577Z,10.30
2022-11-10T06:56:02.684Z,10.40
2022-11-10T06:58:54.968Z,10.50
2022-11-10T07:01:48.399Z,10.40
2022-11-10T07:04:40.541Z,10.30
2022-11-10T07:07:32.708Z,10.20
2022-11-10T07:10:24.846Z,10.30
2022-11-10T07:13:17.246Z,10.30
2022-11-10T07:16:10.132Z,10.20
2022-11-10T07:19:02.267Z,10.30
2022-11-10T07:21:54.454Z,10.40
2022-11-10T07:24:46.581Z,10.40
2022-11-10T07:27:38.721Z,10.40
2022-11-10T07:30:33.157Z,10.40
2022-11-10T07:33:25.503Z,10.30
2022-11-10T07:36:17.823Z,10.40
2022-11-10T07:39:11.690Z,10.40
2022-11-10T07:42:03.886Z,10.40
2022-11-10T07:44:56.038Z,10.40
2022-11-10T07:47:48.230Z,10.40
2022-11-10T07:50:40.474Z,10.40
2022-11-10T07:53:32.776Z,10.40
2022-11-10T07:56:24.987Z,10.40
2022-11-10T07:59:17.161Z,10.50
2022-11-10T08:02:11.775Z,10.50
2022-11-10T08:05:04.723Z,10.50
2022-11-10T08:07:56.918Z,10.60
2022-11-10T08:10:49.100Z,10.70
2022-11-10T08:13:42.119Z,10.70
2022-11-10T08:16:34.299Z,10.80
2022-11-10T08:19:26.438Z,10.90
2022-11-10T08:22:18.585Z,11.00
2022-11-10T08:25:10.923Z,11.00
2022-11-10T08:28:12.092Z,10.90
2022-11-10T08:31:06.144Z,11.00
2022-11-10T08:33:58.598Z,11.00
2022-11-10T08:36:54.066Z,11.10
2022-11-10T08:39:46.202Z,11.10
2022-11-10T08:42:38.268Z,11.20
2022-11-10T08:45:30.546Z,11.10
2022-11-10T08:48:22.944Z,11.20
2022-11-10T08:51:15.073Z,11.10
2022-11-10T08:54:07.278Z,11.10
2022-11-10T08:56:59.397Z,11.10
2022-11-10T08:59:51.587Z,11.00
2022-11-10T09:02:43.748Z,11.00
2022-11-10T09:05:36.339Z,11.00
2022-11-10T09:08:28.488Z,11.10
2022-11-10T09:11:20.623Z,11.10
2022-11-10T09:14:12.742Z,11.10
2022-11-10T09:17:04.864Z,11.00
2022-11-10T09:19:57.260Z,11.00
2022-11-10T09:22:49.580Z,10.90
2022-11-10T09:25:42.932Z,10.90
2022-11-10T09:28:35.058Z,10.90
2022-11-10T09:31:27.157Z,10.90
2022-11-10T09:34:19.275Z,10.90
2022-11-10T09:37:11.483Z,10.90
2022-11-10T09:40:03.909Z,11.00
2022-11-10T09:42:57.774Z,11.10
2022-11-10T09:45:54.026Z,11.30
2022-11-10T09:49:03.671Z,11.50
2022-11-10T09:51:58.994Z,11.70
2022-11-10T09:55:31.391Z,12.10
2022-11-10T09:58:29.885Z,12.40
2022-11-10T10:01:36.998Z,12.50
2022-11-10T10:04:51.500Z,12.50
2022-11-10T10:07:49.923Z,12.30
2022-11-10T10:10:49.369Z,12.30
2022-11-10T10:14:25.480Z,12.20
2022-11-10T10:17:32.194Z,12.20
2022-11-10T10:20:38.693Z,12.30
2022-11-10T10:24:02.609Z,12.20
2022-11-10T10:26:52.868Z,12.30
2022-11-10T10:29:49.259Z,12.40
2022-11-10T10:32:42.444Z,12.50
2022-11-10T10:35:40.547Z,12.50
2022-11-10T10:38:37.812Z,12.40
2022-11-10T10:41:32.267Z,12.30
2022-11-10T10:44:24.472Z,12.40
2022-11-10T10:47:16.581Z,12.50
2022-11-10T10:50:26.124Z,12.50
2022-11-10T10:53:23.786Z,12.50
2022-11-10T10:56:21.523Z,12.40
2022-11-10T10:59:21.569Z,12.40
2022-11-10T11:02:22.821Z,12.30
2022-11-10T11:05:19.845Z,12.30
2022-11-10T11:08:17.805Z,12.20
2022-11-10T11:11:11.593Z,12.20
2022-11-10T11:14:25.207Z,12.10
2022-11-10T11:17:23.264Z,12.00
2022-11-10T11:20:15.786Z,12.00
2022-11-10T11:23:16.766Z,11.80
2022-11-10T11:26:34.659Z,11.80
2022-11-10T11:29:32.473Z,11.80
2022-11-10T11:32:30.302Z,11.70
2022-11-10T11:35:38.204Z,11.70
2022-11-10T11:38:42.407Z,11.70
2022-11-10T11:41:37.499Z,11.70
2022-11-10T11:44:38.526Z,11.60
2022-11-10T11:47:33.439Z,11.60
2022-11-10T11:50:51.090Z,11.60
2022-11-10T11:54:00.366Z,11.60
2022-11-10T11:56:54.836Z,11.70
2022-11-10T12:00:13.472Z,11.60
2022-11-10T12:03:24.539Z,11.60
2022-11-10T12:06:52.468Z,11.60
2022-11-10T12:09:51.286Z,11.50
2022-11-10T12:12:51.984Z,11.50
2022-11-10T12:15:49.011Z,11.50
2022-11-10T12:19:19.227Z,11.50
2022-11-10T12:22:42.310Z,11.40
2022-11-10T12:26:13.595Z,11.40
2022-11-10T12:29:25.745Z,11.40
2022-11-10T12:32:31.397Z,11.40
2022-11-10T12:35:33.226Z,11.40
2022-11-10T12:38:40.102Z,11.40
2022-11-10T12:41:41.923Z,11.40
2022-11-10T12:45:00.290Z,11.40
2022-11-10T12:47:53.309Z,11.40
2022-11-10T12:50:50.920Z,11.50
2022-11-10T12:53:44.212Z,11.50
2022-11-10T12:56:42.203Z,11.50
2022-11-10T12:59:40.081Z,11.50
2022-11-10T13:02:40.748Z,11.50
2022-11-10T13:05:42.085Z,11.50
2022-11-10T13:08:47.260Z,11.60
2022-11-10T13:11:40.482Z,11.60
2022-11-10T13:14:33.024Z,11.60
2022-11-10T13:17:28.318Z,11.70
2022-11-10T13:20:39.241Z,11.60
2022-11-10T13:23:35.834Z,11.60
2022-11-10T13:26:40.003Z,11.60
2022-11-10T13:29:35.040Z,11.50
2022-11-10T13:32:34.268Z,11.40
2022-11-10T13:35:29.191Z,11.40
2022-11-10T13:38:34.920Z,11.30
2022-11-10T13:41:27.522Z,11.20
2022-11-10T13:44:28.114Z,11.20
2022-11-10T13:48:14.374Z,11.20
2022-11-10T13:51:25.948Z,11.20
2022-11-10T13:54:20.639Z,11.20
2022-11-10T13:57:34.753Z,11.20
2022-11-10T14:00:34.305Z,11.10
2022-11-10T14:03:55.140Z,11.10
2022-11-10T14:06:55.073Z,11.10
2022-11-10T14:09:55.062Z,11.10
2022-11-10T14:12:53.432Z,11.10
2022-11-10T14:15:48.302Z,11.10
2022-11-10T14:18:46.718Z,11.00
2022-11-10T14:21:44.301Z,11.10
2022-11-10T14:24:42.795Z,11.00
2022-11-10T14:27:37.759Z,11.10
2022-11-10T14:30:33.503Z,11.10
2022-11-10T14:33:27.401Z,11.10
2022-11-10T14:36:19.546Z,11.20
2022-11-10T14:39:16.433Z,11.20
2022-11-10T14:42:15.732Z,11.20
2022-11-10T14:45:15.671Z,11.20
2022-11-10T14:48:19.165Z,11.20
2022-11-10T14:51:18.579Z,11.30
2022-11-10T14:54:12.654Z,11.30
2022-11-10T14:57:06.083Z,11.20
2022-11-10T14:59:58.205Z,11.20
2022-11-10T15:02:50.618Z,11.10
2022-11-10T15:05:43.491Z,11.10
2022-11-10T15:08:36.140Z,11.20
2022-11-10T15:11:40.440Z,11.20
2022-11-10T15:14:41.341Z,11.10
2022-11-10T15:17:48.840Z,11.10
2022-11-10T15:20:41.472Z,11.00
2022-11-10T15:23:39.422Z,11.00
2022-11-10T15:26:38.279Z,11.00
2022-11-10T15:29:31.017Z,10.90
2022-11-10T15:32:30.804Z,10.90
2022-11-10T15:35:22.906Z,10.90
2022-11-10T15:38:30.893Z,10.90
2022-11-10T15:41:27.352Z,10.80
2022-11-10T15:44:25.843Z,10.90
2022-11-10T15:47:20.653Z,10.80
2022-11-10T15:50:13.104Z,10.80
2022-11-10T15:53:11.590Z,10.80
2022-11-10T15:56:03.996Z,10.80
2022-11-10T15:59:02.082Z,10.80
2022-11-10T16:01:55.230Z,10.70
2022-11-10T16:04:49.169Z,10.70
2022-11-10T16:07:41.394Z,10.70
2022-11-10T16:10:33.744Z,10.70
2022-11-10T16:13:29.321Z,10.70
2022-11-10T16:16:24.000Z,10.60
2022-11-10T16:19:16.271Z,10.60
2022-11-10T16:22:11.214Z,10.70
2022-11-10T16:25:03.508Z,10.60
2022-11-10T16:27:56.377Z,10.70
2022-11-10T16:30:48.638Z,10.70
2022-11-10T16:33:41.666Z,10.60
2022-11-10T16:36:34.389Z,10.60
2022-11-10T16:39:27.607Z,10.70
2022-11-10T16:42:19.807Z,10.60
2022-11-10T16:45:15.948Z,10.60
2022-11-10T16:48:08.225Z,10.60
2022-11-10T16:51:01.648Z,10.50
2022-11-10T16:53:53.937Z,10.50
2022-11-10T16:56:46.395Z,10.50
2022-11-10T16:59:38.491Z,10.40
2022-11-10T17:02:35.643Z,10.50
2022-11-10T17:05:38.626Z,10.40
2022-11-10T17:08:34.052Z,10.40
2022-11-10T17:11:26.382Z,10.40
2022-11-10T17:14:18.649Z,10.40
2022-11-10T17:17:16.903Z,10.40
2022-11-10T17:20:22.056Z,10.30
2022-11-10T17:23:17.267Z,10.30
2022-11-10T17:26:11.656Z,10.30
2022-11-10T17:29:04.065Z,10.30
2022-11-10T17:31:56.255Z,10.20
2022-11-10T17:34:48.360Z,10.20
2022-11-10T17:37:42.115Z,10.20
2022-11-10T17:40:35.756Z,10.20
2022-11-10T17:43:27.943Z,10.20
2022-11-10T17:46:20.066Z,10.20
2022-11-10T17:49:12.236Z,10.10
2022-11-10T17:52:04.605Z,10.10
2022-11-10T17:54:56.789Z,10.00
2022-11-10T17:57:49.274Z,10.00
2022-11-10T18:00:42.057Z,9.90
2022-11-10T18:03:34.215Z,9.90
2022-11-10T18:06:26.484Z,9.80
2022-11-10T18:09:18.617Z,9.80
2022-11-10T18:12:10.787Z,9.80
2022-11-10T18:15:03.251Z,9.70
2022-11-10T18:18:00.086Z,9.60
2022-11-10T18:20:53.333Z,9.50
2022-11-10T18:23:45.473Z,9.40
2022-11-10T18:26:37.643Z,9.40
2022-11-10T18:29:29.781Z,9.30
2022-11-10T18:32:25.489Z,9.30
2022-11-10T18:35:17.885Z,9.20
2022-11-10T18:38:12.749Z,9.20
2022-11-10T18:41:25.243Z,9.20
2022-11-10T18:44:17.438Z,9.10
2022-11-10T18:47:12.370Z,9.10
2022-11-10T18:50:04.993Z,9.10
2022-11-10T18:52:57.569Z,9.00
2022-11-10T18:55:56.287Z,9.00
2022-11-10T18:58:55.311Z,9.00
2022-11-10T19:01:49.470Z,9.00
2022-11-10T19:04:41.821Z,8.90
2022-11-10T19:07:34.013Z,8.90
2022-11-10T19:10:26.218Z,8.80
2022-11-10T19:13:18.661Z,8.80
2022-11-10T19:16:14.760Z,8.80
2022-11-10T19:19:06.914Z,8.80
2022-11-10T19:22:00.720Z,8.80
2022-11-10T19:25:09.239Z,8.80
2022-11-10T19:28:01.703Z,8.70
2022-11-10T19:30:59.227Z,8.60
2022-11-10T19:33:55.584Z,8.60
2022-11-10T19:36:49.293Z,8.70
2022-11-10T19:39:42.009Z,8.60
2022-11-10T19:42:34.188Z,8.70
2022-11-10T19:45:26.351Z,8.70
2022-11-10T19:48:18.485Z,8.70
2022-11-10T19:51:13.501Z,8.70
2022-11-10T19:54:05.958Z,8.70
2022-11-10T19:56:58.342Z,8.70
2022-11-10T19:59:50.728Z,8.70
2022-11-10T20:02:45.529Z,8.70
2022-11-10T20:05:39.838Z,8.70
2022-11-10T20:08:32.747Z,8.70
2022-11-10T20:11:26.423Z,8.70
2022-11-10T20:14:18.544Z,8.70
2022-11-10T20:17:10.663Z,8.70
2022-11-10T20:20:02.830Z,8.70
2022-11-10T20:22:55.098Z,8.60
2022-11-10T20:25:47.202Z,8.60
2022-11-10T20:28:40.017Z,8.60
2022-11-10T20:31:32.566Z,8.60
2022-11-10T20:34:24.699Z,8.60
2022-11-10T20:37:16.855Z,8.60
2022-11-10T20:40:37.570Z,8.60
2022-11-10T20:43:21.475Z,8.50
2022-11-10T20:46:40.176Z,8.60
2022-11-10T20:49:29.380Z,8.60
2022-11-10T20:52:21.542Z,8.50
2022-11-10T20:55:18.292Z,8.50
2022-11-10T20:58:10.872Z,8.50
2022-11-10T21:01:08.547Z,8.40
2022-11-10T21:04:02.436Z,8.40
2022-11-10T21:06:55.276Z,8.40
2022-11-10T21:09:47.616Z,8.50
2022-11-10T21:12:52.333Z,8.40
2022-11-10T21:15:52.497Z,8.40
2022-11-10T21:18:44.613Z,8.50
2022-11-10T21:21:36.788Z,8.40
2022-11-10T21:24:29.258Z,8.50
2022-11-10T21:27:21.402Z,8.50
2022-11-10T21:30:22.623Z,8.40
2022-11-10T21:33:15.144Z,8.40
2022-11-10T21:36:08.114Z,8.30
2022-11-10T21:39:00.362Z,8.20
2022-11-10T21:41:52.491Z,8.20
2022-11-10T21:44:44.636Z,8.10
2022-11-10T21:47:36.781Z,8.10
2022-11-10T21:50:29.211Z,8.20
2022-11-10T21:53:21.764Z,8.10
2022-11-10T21:56:14.105Z,8.20
2022-11-10T21:59:06.216Z,8.20
2022-11-10T22:01:58.425Z,8.20
2022-11-10T22:04:50.569Z,8.20
2022-11-10T22:07:42.694Z,8.20
2022-11-10T22:10:53.383Z,8.20
2022-11-10T22:14:04.591Z,8.20
2022-11-10T22:17:15.254Z,8.20
2022-11-10T22:20:07.665Z,8.20
2022-11-10T22:22:59.795Z,8.30
2022-11-10T22:25:51.921Z,8.20
2022-11-10T22:28:44.430Z,8.20
2022-11-10T22:31:36.567Z,8.30
2022-11-10T22:34:28.766Z,8.30
2022-11-10T22:37:22.389Z,8.30
2022-11-10T22:40:33.181Z,8.30
2022-11-10T22:43:43.709Z,8.40
2022-11-10T22:46:38.374Z,8.40
2022-11-10T22:49:30.503Z,8.30
2022-11-10T22:52:22.631Z,8.40
2022-11-10T22:55:14.799Z,8.40
2022-11-10T22:58:06.915Z,8.40
2022-11-10T23:01:10.715Z,8.50
2022-11-10T23:04:03.155Z,8.40
2022-11-10T23:06:55.312Z,8.40
2022-11-10T23:09:47.474Z,8.30
2022-11-10T23:12:39.604Z,8.30
2022-11-10T23:15:34.566Z,8.30
2022-11-10T23:18:26.715Z,8.30
2022-11-10T23:21:20.746Z,8.30
2022-11-10T23:24:13.523Z,8.30
2022-11-10T23:27:05.670Z,8.30
2022-11-10T23:29:57.765Z,8.20
2022-11-10T23:32:49.937Z,8.10
2022-11-10T23:35:42.049Z,7.90
2022-11-10T23:38:35.793Z,7.90
2022-11-10T23:41:27.893Z,7.80
2022-11-10T23:44:20.665Z,7.80
2022-11-10T23:47:12.806Z,7.80
2022-11-10T23:50:05.382Z,7.70
2022-11-10T23:52:58.764Z,7.70
2022-11-10T23:56:01.860Z,7.60
2022-11-10T23:58:53.971Z,7.60
